Time;durP1;ratioP1;P1;durP2;ratioP2;P2;SDS_P1;SDS_P2;PMS_P1;PMS_P2;Temp;Humidity;BMP_temperature;BMP_pressure;BME280_temperature;BME280_humidity;BME280_pressure;Samples;Min_cycle;Max_cycle;Signal;HPM_P1;HPM_P2
2023/07/22 00:01:10;;;;;;;;;;;20.20;59.00;;;16.09;100.00;95567.03;4971247;28;20013;-48
2023/07/22 00:03:35;;;;;;;;;;;20.20;59.20;;;16.08;100.00;95570.81;4974903;28;19932;-48
2023/07/22 00:06:08;;;;;;;;;;;20.20;59.10;;;16.05;100.00;95564.13;4961035;28;19917;-49
2023/07/22 00:08:35;;;;;;;;;;;20.20;59.20;;;16.05;100.00;95561.47;4962064;28;20380;-47
2023/07/22 00:11:01;;;;;;;;;;;20.10;59.20;;;16.02;100.00;95548.63;4983072;28;19910;-47
2023/07/22 00:13:27;;;;;;;;;;;20.20;59.20;;;16.02;100.00;95543.25;4962222;28;20253;-46
2023/07/22 00:15:54;;;;;;;;;;;20.10;59.20;;;16.00;100.00;95550.81;4969386;28;19910;-45
2023/07/22 00:18:20;;;;;;;;;;;20.10;59.20;;;15.97;100.00;95546.03;4966202;28;20261;-46
2023/07/22 00:20:46;;;;;;;;;;;20.10;59.20;;;15.95;100.00;95550.88;4982356;28;20292;-48
2023/07/22 00:23:12;;;;;;;;;;;20.10;59.30;;;15.92;100.00;95557.69;4966484;28;19914;-47
2023/07/22 00:25:37;;;;;;;;;;;20.10;59.30;;;15.88;100.00;95555.88;4963222;28;20453;-47
2023/07/22 00:28:06;;;;;;;;;;;20.10;59.30;;;15.86;100.00;95558.09;4968192;28;20265;-46
2023/07/22 00:30:32;;;;;;;;;;;20.00;59.40;;;15.84;100.00;95554.88;4972537;28;19945;-46
2023/07/22 00:32:58;;;;;;;;;;;20.00;59.40;;;15.81;100.00;95553.59;4973128;28;20377;-46
2023/07/22 00:35:24;;;;;;;;;;;20.00;59.40;;;15.79;100.00;95550.41;4966247;28;20023;-50
2023/07/22 00:37:49;;;;;;;;;;;20.00;59.50;;;15.84;100.00;95544.16;4955315;28;20483;-49
2023/07/22 00:40:16;;;;;;;;;;;20.00;59.50;;;15.84;100.00;95544.16;4967827;28;19980;-48
2023/07/22 00:42:43;;;;;;;;;;;20.00;59.50;;;15.84;100.00;95546.84;4961167;28;19945;-45
2023/07/22 00:45:09;;;;;;;;;;;20.00;59.60;;;15.83;100.00;95543.34;4960857;28;19914;-46
2023/07/22 00:47:36;;;;;;;;;;;20.00;59.60;;;15.83;100.00;95546.03;4966172;28;20380;-45
2023/07/22 00:50:06;;;;;;;;;;;19.90;59.60;;;15.81;100.00;95540.16;4966386;28;19915;-47
2023/07/22 00:52:33;;;;;;;;;;;19.90;59.70;;;15.81;100.00;95536.69;4962616;28;19917;-50
2023/07/22 00:54:59;;;;;;;;;;;19.90;59.70;;;15.81;100.00;95540.16;4960290;28;19921;-47
2023/07/22 00:57:25;;;;;;;;;;;19.90;59.80;;;15.81;100.00;95536.69;4964502;28;19957;-46
2023/07/22 00:59:51;;;;;;;;;;;19.90;59.80;;;15.79;100.00;95528.13;4982137;28;19948;-47
2023/07/22 01:02:19;;;;;;;;;;;19.90;59.80;;;15.76;100.00;95529.50;4959189;28;19964;-47
2023/07/22 01:04:46;;;;;;;;;;;19.90;59.90;;;15.76;100.00;95534.09;4981885;28;19959;-46
2023/07/22 01:07:13;;;;;;;;;;;19.90;59.90;;;15.71;100.00;95524.25;4961855;28;19909;-51
2023/07/22 01:09:43;;;;;;;;;;;19.90;59.90;;;15.70;100.00;95523.47;4960053;28;19914;-46
2023/07/22 01:12:10;;;;;;;;;;;19.80;59.90;;;15.69;100.00;95531.81;4966327;28;19914;-46
2023/07/22 01:14:39;;;;;;;;;;;19.80;59.90;;;15.64;100.00;95532.69;4969130;28;19917;-46
2023/07/22 01:17:08;;;;;;;;;;;19.80;60.00;;;15.60;100.00;95528.19;4963718;28;19913;-46
2023/07/22 01:19:35;;;;;;;;;;;19.70;59.90;;;15.54;100.00;95524.78;4973730;28;19910;-46
2023/07/22 01:22:04;;;;;;;;;;;19.70;60.00;;;15.47;100.00;95519.81;4964820;28;20338;-47
2023/07/22 01:24:34;;;;;;;;;;;19.70;60.00;;;15.40;100.00;95524.00;4974854;28;20342;-48
2023/07/22 01:27:00;;;;;;;;;;;19.60;60.00;;;15.32;100.00;95538.88;4971877;28;20360;-46
2023/07/22 01:29:26;;;;;;;;;;;19.50;60.00;;;15.23;100.00;95535.28;4970313;28;20000;-46
2023/07/22 01:31:55;;;;;;;;;;;19.50;60.00;;;15.15;100.00;95533.28;4977971;28;19968;-45
2023/07/22 01:34:22;;;;;;;;;;;19.40;60.20;;;15.14;100.00;95529.03;4967182;28;19918;-47
2023/07/22 01:36:49;;;;;;;;;;;19.30;60.20;;;15.10;100.00;95523.44;4971762;28;19996;-46
2023/07/22 01:39:16;;;;;;;;;;;19.30;60.30;;;15.03;100.00;95518.44;4959706;28;19964;-47
2023/07/22 01:41:43;;;;;;;;;;;19.20;60.30;;;14.97;100.00;95527.66;4963284;28;20005;-46
2023/07/22 01:44:09;;;;;;;;;;;19.10;60.40;;;14.89;100.00;95525.66;4962600;28;19918;-46
2023/07/22 01:46:35;;;;;;;;;;;19.10;60.50;;;14.85;100.00;95521.97;4962882;28;20008;-48
2023/07/22 01:49:06;;;;;;;;;;;19.00;60.50;;;14.81;100.00;95520.97;4958312;28;19972;-50
2023/07/22 01:51:32;;;;;;;;;;;18.90;60.60;;;14.74;100.00;95520.53;4962227;28;19914;-45
2023/07/22 01:53:58;;;;;;;;;;;18.90;60.70;;;14.68;100.00;95517.13;4966476;28;19916;-46
2023/07/22 01:56:24;;;;;;;;;;;18.80;60.80;;;14.64;100.00;95521.50;4966051;28;19945;-47
2023/07/22 01:58:50;;;;;;;;;;;18.80;60.90;;;14.57;100.00;95515.69;4959599;28;19914;-45
2023/07/22 02:01:16;;;;;;;;;;;18.70;60.90;;;14.51;100.00;95522.25;4966510;28;19916;-45
2023/07/22 02:03:46;;;;;;;;;;;18.60;61.00;;;14.46;100.00;95536.47;4959450;28;19948;-46
2023/07/22 02:06:12;;;;;;;;;;;18.60;61.10;;;14.44;100.00;95535.16;4961019;28;19917;-46
2023/07/22 02:08:38;;;;;;;;;;;18.50;61.10;;;14.39;100.00;95532.56;4964792;28;19960;-46
2023/07/22 02:11:08;;;;;;;;;;;18.50;61.20;;;14.34;100.00;95534.22;4964476;28;19963;-45
2023/07/22 02:13:35;;;;;;;;;;;18.50;61.30;;;14.28;100.00;95542.59;4962258;28;19946;-46
2023/07/22 02:16:03;;;;;;;;;;;18.40;61.40;;;14.25;100.00;95538.63;4963550;28;20438;-46
2023/07/22 02:18:28;;;;;;;;;;;18.40;61.50;;;14.21;100.00;95526.88;4959263;28;20349;-47
2023/07/22 02:20:57;;;;;;;;;;;18.30;61.50;;;14.21;100.00;95526.09;4971582;28;20332;-47
2023/07/22 02:23:24;;;;;;;;;;;18.30;61.60;;;14.18;100.00;95521.31;4958888;28;19945;-47
2023/07/22 02:25:54;;;;;;;;;;;18.30;61.70;;;14.17;100.00;95527.78;4968044;28;20454;-48
2023/07/22 02:28:21;;;;;;;;;;;18.30;61.80;;;14.17;100.00;95536.59;4972275;28;19921;-46
2023/07/22 02:30:52;;;;;;;;;;;18.30;61.90;;;14.18;100.00;95534.72;4971415;28;19909;-45
2023/07/22 02:33:19;;;;;;;;;;;18.30;62.70;;;14.21;100.00;95537.59;4972140;28;20396;-46
2023/07/22 02:35:45;;;;;;;;;;;18.30;62.00;;;14.23;100.00;95527.41;4969467;28;19909;-45
2023/07/22 02:38:11;;;;;;;;;;;18.30;62.10;;;14.24;100.00;95529.00;4963653;28;19918;-46
2023/07/22 02:40:37;;;;;;;;;;;18.30;62.00;;;14.26;100.00;95531.41;4965923;28;20372;-46
2023/07/22 02:43:03;;;;;;;;;;;18.40;62.10;;;14.25;100.00;95527.09;4957191;28;19913;-46
2023/07/22 02:45:30;;;;;;;;;;;18.40;62.10;;;14.24;100.00;95522.84;4958752;28;19978;-46
2023/07/22 02:47:55;;;;;;;;;;;18.30;62.00;;;14.21;100.00;95521.53;4964133;28;20377;-45
2023/07/22 02:50:21;;;;;;;;;;;18.30;62.00;;;14.17;100.00;95517.06;4964911;28;19910;-46
2023/07/22 02:52:47;;;;;;;;;;;18.30;62.00;;;14.14;100.00;95514.94;4960108;28;19910;-49
2023/07/22 02:55:19;;;;;;;;;;;18.30;62.10;;;14.08;100.00;95517.69;4961063;28;19961;-49
2023/07/22 02:57:47;;;;;;;;;;;18.20;62.00;;;14.05;100.00;95523.63;4961415;28;20000;-45
2023/07/22 03:00:35;;;;;;;;;;;18.20;62.10;;;14.06;100.00;95521.72;4959223;28;20332;-46
2023/07/22 03:03:00;;;;;;;;;;;18.20;62.20;;;14.03;100.00;95511.59;4960338;28;19910;-48
2023/07/22 03:05:30;;;;;;;;;;;18.10;62.20;;;14.01;100.00;95511.09;4965467;28;19910;-45
2023/07/22 03:07:58;;;;;;;;;;;18.10;62.30;;;14.00;100.00;95512.16;4963248;28;19917;-48
2023/07/22 03:10:29;;;;;;;;;;;18.10;62.30;;;13.96;100.00;95509.28;4959060;28;19941;-46
2023/07/22 03:12:56;;;;;;;;;;;18.10;62.40;;;13.94;100.00;95507.97;4969264;28;19918;-46
2023/07/22 03:15:26;;;;;;;;;;;18.10;62.50;;;13.93;100.00;95509.84;4964903;28;19945;-45
2023/07/22 03:17:52;;;;;;;;;;;18.00;62.50;;;13.89;100.00;95511.50;4980120;28;19910;-45
2023/07/22 03:20:19;;;;;;;;;;;18.00;62.50;;;13.86;100.00;95512.09;4959376;28;19972;-45
2023/07/22 03:22:46;;;;;;;;;;;18.00;62.60;;;13.83;100.00;95510.78;4968965;28;20008;-45
2023/07/22 03:25:16;;;;;;;;;;;18.00;62.70;;;13.82;100.00;95513.72;4962122;28;19937;-45
2023/07/22 03:27:44;;;;;;;;;;;18.00;62.70;;;13.81;100.00;95518.28;4973949;28;19917;-48
2023/07/22 03:30:17;;;;;;;;;;;17.90;62.70;;;13.82;100.00;95513.72;4975288;28;19913;-45
2023/07/22 03:32:47;;;;;;;;;;;17.90;62.90;;;13.82;100.00;95514.53;4971079;28;20024;-48
2023/07/22 03:35:13;;;;;;;;;;;17.90;62.90;;;13.84;100.00;95519.59;4965245;28;19910;-46
2023/07/22 03:37:40;;;;;;;;;;;17.90;63.00;;;13.86;100.00;95518.22;4961550;28;20016;-46
2023/07/22 03:40:10;;;;;;;;;;;17.90;63.10;;;13.86;100.00;95515.56;4965444;28;19932;-44
2023/07/22 03:42:36;;;;;;;;;;;18.00;63.20;;;13.87;100.00;95503.75;4959956;28;19910;-44
2023/07/22 03:45:02;;;;;;;;;;;18.00;63.20;;;13.90;100.00;95505.06;4965111;28;19936;-45
2023/07/22 03:47:28;;;;;;;;;;;18.00;63.20;;;13.88;100.00;95501.88;4961151;28;19972;-47
2023/07/22 03:49:54;;;;;;;;;;;18.00;63.30;;;13.87;100.00;95508.31;4973662;28;19949;-45
2023/07/22 03:52:19;;;;;;;;;;;18.00;63.30;;;13.85;100.00;95500.59;4961052;28;19953;-45
2023/07/22 03:54:45;;;;;;;;;;;18.00;63.20;;;13.84;100.00;95509.69;4964061;28;19916;-49
2023/07/22 03:57:11;;;;;;;;;;;18.00;63.20;;;13.83;100.00;95504.63;4961290;28;19916;-45
2023/07/22 03:59:37;;;;;;;;;;;18.00;63.10;;;13.82;100.00;95511.03;4964784;28;19937;-45
2023/07/22 04:02:03;;;;;;;;;;;18.00;63.10;;;13.79;100.00;95511.66;4967365;28;19910;-45
2023/07/22 04:04:29;;;;;;;;;;;18.00;63.10;;;13.76;100.00;95522.94;4965274;28;20263;-45
2023/07/22 04:06:54;;;;;;;;;;;17.90;63.10;;;13.77;100.00;95527.97;4958789;28;19914;-46
2023/07/22 04:09:20;;;;;;;;;;;18.00;63.20;;;13.79;100.00;95522.34;4964786;28;20005;-45
2023/07/22 04:11:46;;;;;;;;;;;18.00;63.20;;;13.79;100.00;95512.44;4961329;28;19932;-44
2023/07/22 04:14:12;;;;;;;;;;;18.00;63.20;;;13.82;100.00;95519.91;4962647;28;19956;-45
2023/07/22 04:16:39;;;;;;;;;;;18.00;63.20;;;13.79;100.00;95525.81;4967723;28;20489;-45
2023/07/22 04:19:06;;;;;;;;;;;18.00;63.20;;;13.80;100.00;95527.41;4956997;28;19913;-46
2023/07/22 04:21:31;;;;;;;;;;;18.00;63.30;;;13.81;100.00;95523.63;4970726;28;19910;-45
2023/07/22 04:23:57;;;;;;;;;;;18.00;63.20;;;13.79;100.00;95519.69;4964359;28;19914;-44
2023/07/22 04:26:23;;;;;;;;;;;18.00;63.30;;;13.77;100.00;95522.63;4965600;28;19918;-45
2023/07/22 04:28:48;;;;;;;;;;;18.00;63.30;;;13.73;100.00;95532.31;4964441;28;19925;-44
2023/07/22 04:31:14;;;;;;;;;;;17.90;63.20;;;13.73;100.00;95535.00;4968737;28;19910;-45
2023/07/22 04:33:41;;;;;;;;;;;17.90;63.20;;;13.74;100.00;95535.78;4964990;28;20016;-45
2023/07/22 04:36:07;;;;;;;;;;;17.90;63.20;;;13.73;100.00;95534.19;4967141;28;19946;-45
2023/07/22 04:38:33;;;;;;;;;;;17.90;63.20;;;13.67;100.00;95538.00;4965219;28;19913;-45
2023/07/22 04:41:01;;;;;;;;;;;17.90;63.20;;;13.68;100.00;95536.94;4960770;28;20351;-45
2023/07/22 04:43:27;;;;;;;;;;;17.90;63.30;;;13.66;100.00;95545.22;4967109;28;20575;-46
2023/07/22 04:45:55;;;;;;;;;;;17.90;64.20;;;13.70;100.00;95538.25;4959912;28;26628;-45
2023/07/22 04:48:24;;;;;;;;;;;17.90;63.50;;;13.72;100.00;95544.09;4961844;28;19953;-45
2023/07/22 04:50:51;;;;;;;;;;;18.00;63.50;;;13.72;100.00;95541.41;4966311;28;19921;-46
2023/07/22 04:53:18;;;;;;;;;;;18.00;63.40;;;13.70;100.00;95540.13;4965747;28;19909;-45
2023/07/22 04:55:44;;;;;;;;;;;18.00;63.30;;;13.69;100.00;95539.31;4962208;28;19917;-47
2023/07/22 04:58:10;;;;;;;;;;;18.00;63.30;;;13.72;100.00;95543.28;4966808;28;20021;-46
2023/07/22 05:00:37;;;;;;;;;;;18.00;63.30;;;13.80;100.00;95548.81;4960966;28;19916;-46
2023/07/22 05:03:04;;;;;;;;;;;18.10;63.30;;;13.86;100.00;95545.00;4972323;28;19909;-45
2023/07/22 05:05:30;;;;;;;;;;;18.10;63.30;;;14.04;100.00;95554.19;4960153;28;20296;-47
2023/07/22 05:07:56;;;;;;;;;;;18.30;63.40;;;14.12;100.00;95558.09;4960692;28;19910;-45
2023/07/22 05:10:22;;;;;;;;;;;18.40;63.40;;;14.28;100.00;95564.84;4966507;28;20393;-44
2023/07/22 05:12:48;;;;;;;;;;;18.50;63.30;;;14.41;100.00;95565.22;4964881;28;19997;-44
2023/07/22 05:15:15;;;;;;;;;;;18.70;63.30;;;14.52;100.00;95570.19;4960076;28;20029;-45
2023/07/22 05:17:41;;;;;;;;;;;18.80;63.20;;;14.66;100.00;95562.19;4960160;28;19917;-45
2023/07/22 05:20:10;;;;;;;;;;;19.00;63.30;;;14.71;100.00;95566.69;4966100;28;19910;-45
2023/07/22 05:22:37;;;;;;;;;;;19.10;63.20;;;14.76;100.00;95569.28;4965302;28;20292;-45
2023/07/22 05:25:04;;;;;;;;;;;19.20;63.10;;;14.85;100.00;95558.72;4968012;28;20066;-47
2023/07/22 05:27:30;;;;;;;;;;;19.30;63.10;;;14.89;100.00;95567.78;4963490;28;19914;-46
2023/07/22 05:29:56;;;;;;;;;;;19.40;63.10;;;14.90;100.00;95564.78;4961616;28;20413;-46
2023/07/22 05:32:22;;;;;;;;;;;19.50;63.10;;;14.94;100.00;95571.16;4953355;28;20407;-43
2023/07/22 05:34:48;;;;;;;;;;;19.50;62.90;;;15.13;100.00;95570.34;4966276;28;20565;-47
2023/07/22 05:37:13;;;;;;;;;;;19.70;62.90;;;15.40;100.00;95573.09;4959487;28;19909;-44
2023/07/22 05:39:39;;;;;;;;;;;19.90;62.80;;;15.57;100.00;95575.22;4972472;28;19913;-50
2023/07/22 05:42:05;;;;;;;;;;;20.10;62.80;;;15.68;100.00;95578.56;4959329;28;19914;-45
2023/07/22 05:44:31;;;;;;;;;;;20.20;62.80;;;15.78;100.00;95574.88;4981033;28;20423;-44
2023/07/22 05:46:57;;;;;;;;;;;20.40;62.70;;;15.84;100.00;95582.53;4967188;28;20056;-48
2023/07/22 05:49:22;;;;;;;;;;;20.60;62.70;;;15.96;100.00;95585.53;4955913;28;19945;-46
2023/07/22 05:51:48;;;;;;;;;;;20.70;62.50;;;16.04;100.00;95585.91;4960812;28;20316;-45
2023/07/22 05:54:14;;;;;;;;;;;20.80;62.40;;;16.13;100.00;95582.22;4975106;28;20008;-46
2023/07/22 05:56:41;;;;;;;;;;;21.00;62.20;;;16.40;100.00;95586.78;4959899;28;19910;-49
2023/07/22 05:59:07;;;;;;;;;;;21.20;62.10;;;16.52;100.00;95597.03;4965599;28;20399;-47
2023/07/22 06:01:33;;;;;;;;;;;21.40;61.90;;;16.60;100.00;95599.00;4958173;28;20048;-45
2023/07/22 06:03:58;;;;;;;;;;;21.60;61.70;;;16.65;100.00;95593.53;4986473;28;20016;-46
2023/07/22 06:06:24;;;;;;;;;;;21.70;61.50;;;16.90;100.00;95595.97;4984855;28;19941;-45
2023/07/22 06:08:50;;;;;;;;;;;21.90;61.30;;;17.03;100.00;95589.75;4966917;28;19936;-45
2023/07/22 06:11:17;;;;;;;;;;;22.00;61.20;;;17.09;100.00;95599.28;4955904;28;19987;-45
2023/07/22 06:13:43;;;;;;;;;;;22.10;61.10;;;17.03;100.00;95597.81;4961788;28;19949;-45
2023/07/22 06:16:08;;;;;;;;;;;22.20;60.90;;;17.12;100.00;95604.06;4965290;28;20423;-49
2023/07/22 06:18:34;;;;;;;;;;;22.30;60.70;;;17.16;100.00;95602.34;4955318;28;20300;-44
2023/07/22 06:21:00;;;;;;;;;;;22.40;60.50;;;17.41;100.00;95600.16;4959834;28;20354;-48
2023/07/22 06:23:26;;;;;;;;;;;22.60;60.10;;;17.61;98.96;95598.81;4967229;28;19961;-44
2023/07/22 06:25:52;;;;;;;;;;;23.00;60.10;;;17.82;98.17;95604.53;4955306;28;19961;-45
2023/07/22 06:28:17;;;;;;;;;;;23.10;59.80;;;17.98;95.99;95611.09;4951850;28;19963;-53
2023/07/22 06:30:43;;;;;;;;;;;23.30;59.70;;;18.09;95.20;95607.03;4967343;28;19985;-51
2023/07/22 06:33:09;;;;;;;;;;;23.50;59.50;;;18.24;95.07;95606.59;4953329;28;19929;-52
2023/07/22 06:35:35;;;;;;;;;;;23.60;59.30;;;18.38;93.37;95611.06;4961958;28;19960;-45
2023/07/22 06:38:01;;;;;;;;;;;23.70;59.20;;;18.53;91.75;95616.03;4965502;28;19941;-45
2023/07/22 06:40:26;;;;;;;;;;;23.90;59.00;;;18.63;91.75;95617.63;4961150;28;20001;-49
2023/07/22 06:42:52;;;;;;;;;;;23.90;58.70;;;18.92;91.03;95622.47;4953724;28;19910;-45
2023/07/22 06:45:18;;;;;;;;;;;24.10;58.60;;;19.27;89.76;95625.94;4964475;28;19910;-45
2023/07/22 06:47:45;;;;;;;;;;;24.50;58.40;;;19.62;87.89;95628.63;4916095;28;126792;-45
2023/07/22 06:50:10;;;;;;;;;;;25.00;58.30;;;19.91;85.50;95632.56;4965404;28;19921;-45
2023/07/22 06:52:36;;;;;;;;;;;25.40;58.00;;;20.27;82.66;95632.88;4971587;28;19916;-45
2023/07/22 06:55:02;;;;;;;;;;;25.70;57.80;;;20.42;78.78;95634.25;4974311;28;20327;-46
2023/07/22 06:57:29;;;;;;;;;;;25.90;57.60;;;20.74;78.57;95619.28;4975428;28;20375;-46
2023/07/22 06:59:56;;;;;;;;;;;26.30;57.30;;;21.18;77.17;95624.41;4962452;28;19917;-45
2023/07/22 07:02:22;;;;;;;;;;;26.70;57.00;;;21.53;74.62;95624.13;4974967;28;19910;-45
2023/07/22 07:04:49;;;;;;;;;;;27.20;56.70;;;21.70;72.61;95624.75;4974285;28;19909;-47
2023/07/22 07:07:16;;;;;;;;;;;27.50;56.20;;;21.85;71.97;95628.75;4959597;28;20320;-46
2023/07/22 07:09:42;;;;;;;;;;;27.70;55.60;;;21.99;71.80;95631.13;4973591;28;19914;-46
2023/07/22 07:12:08;;;;;;;;;;;28.00;55.40;;;22.25;68.03;95625.47;4964394;28;19979;-50
2023/07/22 07:14:35;;;;;;;;;;;28.30;55.00;;;22.17;68.01;95627.13;4974384;28;19931;-51
2023/07/22 07:17:01;;;;;;;;;;;28.30;54.40;;;22.38;66.84;95634.41;4975633;28;19910;-50
2023/07/22 07:19:28;;;;;;;;;;;28.50;54.10;;;22.33;65.77;95624.53;4963313;28;19956;-50
2023/07/22 07:21:54;;;;;;;;;;;28.60;53.90;;;22.69;65.82;95625.69;4956455;28;19910;-51
2023/07/22 07:24:20;;;;;;;;;;;28.80;53.70;;;22.59;63.58;95628.84;4957939;28;20270;-51
2023/07/22 07:26:46;;;;;;;;;;;29.00;53.40;;;23.01;63.99;95629.38;4965878;28;19925;-51
2023/07/22 07:29:12;;;;;;;;;;;29.30;53.10;;;23.33;61.23;95626.81;4970299;28;19960;-47
2023/07/22 07:31:38;;;;;;;;;;;29.50;52.80;;;23.64;59.15;95636.19;4973891;28;19917;-45
2023/07/22 07:34:04;;;;;;;;;;;29.80;52.50;;;23.68;56.19;95634.34;4963394;28;20269;-46
2023/07/22 07:36:31;;;;;;;;;;;30.00;52.20;;;23.85;57.70;95633.28;4974560;28;19917;-49
2023/07/22 07:38:57;;;;;;;;;;;30.20;51.80;;;24.08;55.32;95630.78;4964869;28;19942;-45
2023/07/22 07:41:23;;;;;;;;;;;30.40;51.30;;;24.15;54.82;95623.56;4967973;28;19949;-48
2023/07/22 07:43:49;;;;;;;;;;;30.60;51.10;;;24.33;53.48;95621.31;4966268;28;20361;-47
2023/07/22 07:46:25;;;;;;;;;;;30.80;50.60;;;24.40;53.99;95620.69;4956070;28;20392;-50
2023/07/22 07:48:57;;;;;;;;;;;31.00;50.10;;;24.72;51.32;95632.34;4973280;28;19914;-48
2023/07/22 07:51:29;;;;;;;;;;;31.20;49.50;;;24.95;51.46;95621.59;4962300;28;20297;-45
2023/07/22 07:53:56;;;;;;;;;;;31.40;49.30;;;25.09;52.72;95632.78;4974612;28;19917;-49
2023/07/22 07:56:23;;;;;;;;;;;31.60;49.00;;;25.31;50.43;95634.06;4969656;28;19913;-46
2023/07/22 07:58:51;;;;;;;;;;;31.90;48.70;;;25.57;48.91;95630.69;4964606;28;19909;-49
2023/07/22 08:01:17;;;;;;;;;;;32.20;48.20;;;25.74;48.00;95626.72;4973940;28;19945;-46
2023/07/22 08:03:44;;;;;;;;;;;32.40;47.50;;;26.21;45.85;95633.84;4964211;28;19946;-45
2023/07/22 08:06:11;;;;;;;;;;;32.70;47.00;;;26.50;47.62;95632.38;4968102;28;20016;-45
2023/07/22 08:08:38;;;;;;;;;;;32.90;46.40;;;26.79;43.51;95638.28;4969037;28;19914;-45
2023/07/22 08:11:15;;;;;;;;;;;33.20;46.10;;;26.83;44.04;95636.41;4970203;28;19910;-50
2023/07/22 08:13:44;;;;;;;;;;;33.50;45.20;;;26.79;43.10;95634.78;4968264;28;20368;-49
2023/07/22 08:16:12;;;;;;;;;;;33.80;44.90;;;27.20;45.07;95630.31;4955075;28;19925;-49
2023/07/22 08:18:38;;;;;;;;;;;34.20;44.70;;;27.50;43.84;95624.03;4967863;28;20052;-52
2023/07/22 08:21:09;;;;;;;;;;;34.50;44.50;;;27.21;43.44;95626.44;4988665;28;19910;-46
2023/07/22 08:23:36;;;;;;;;;;;34.70;43.80;;;27.33;43.82;95625.41;4961062;28;20012;-48
2023/07/22 08:26:05;;;;;;;;;;;34.80;43.40;;;27.34;41.77;95630.50;4973467;28;19918;-47
2023/07/22 08:28:31;;;;;;;;;;;34.60;43.10;;;27.29;41.98;95625.34;4972060;28;19968;-52
2023/07/22 08:31:00;;;;;;;;;;;34.50;43.10;;;27.51;43.07;95620.91;4963055;28;19964;-52
2023/07/22 08:33:26;;;;;;;;;;;34.80;42.70;;;27.47;40.66;95625.56;4974162;28;19910;-52
2023/07/22 08:35:52;;;;;;;;;;;34.90;42.00;;;27.35;40.90;95628.53;4965349;28;20355;-49
2023/07/22 08:38:18;;;;;;;;;;;34.80;41.60;;;27.39;39.57;95626.63;4969063;28;20359;-48
2023/07/22 08:40:48;;;;;;;;;;;34.70;41.40;;;27.25;39.30;95630.00;4954688;28;19910;-48
2023/07/22 08:43:15;;;;;;;;;;;34.50;41.00;;;27.20;39.53;95625.66;4969227;28;19910;-47
2023/07/22 08:45:42;;;;;;;;;;;34.20;41.00;;;26.93;40.46;95619.38;4973831;28;20368;-49
2023/07/22 08:48:09;;;;;;;;;;;34.00;41.10;;;26.95;41.90;95624.47;4971734;28;19920;-48
2023/07/22 08:51:23;;;;;;;;;;;34.00;40.90;;;26.84;39.98;95621.59;4967710;28;20331;-46
2023/07/22 08:53:50;;;;;;;;;;;33.90;41.00;;;26.64;42.11;95626.38;4973409;28;20395;-46
2023/07/22 08:56:17;;;;;;;;;;;33.60;41.30;;;26.47;41.77;95627.63;4969174;28;19932;-46
2023/07/22 08:58:43;;;;;;;;;;;33.50;41.60;;;26.40;43.60;95629.47;4959741;28;19917;-47
2023/07/22 09:01:09;;;;;;;;;;;33.50;40.80;;;26.17;42.63;95627.53;4956676;28;20439;-49
2023/07/22 09:03:37;;;;;;;;;;;33.30;40.60;;;25.70;42.29;95625.06;4988683;28;19916;-49
2023/07/22 09:06:05;;;;;;;;;;;33.00;40.10;;;25.67;42.14;95617.63;4975369;28;20361;-48
2023/07/22 09:08:30;;;;;;;;;;;32.70;40.30;;;25.53;43.39;95620.84;4972209;28;19909;-45
2023/07/22 09:10:57;;;;;;;;;;;32.40;40.50;;;25.29;43.39;95616.47;4973148;28;19910;-47
2023/07/22 09:13:26;;;;;;;;;;;32.20;40.50;;;25.05;42.97;95620.25;4970714;28;19940;-47
2023/07/22 09:15:53;;;;;;;;;;;31.90;40.40;;;24.93;43.80;95623.88;4960607;28;20264;-51
2023/07/22 09:18:19;;;;;;;;;;;31.80;40.20;;;25.30;42.68;95621.59;4967662;28;19921;-49
2023/07/22 09:20:45;;;;;;;;;;;31.80;40.00;;;25.25;41.41;95618.34;4985949;28;20380;-47
2023/07/22 09:23:12;;;;;;;;;;;31.70;40.00;;;25.27;41.36;95613.34;4973198;28;19909;-50
2023/07/22 09:25:41;;;;;;;;;;;31.70;40.00;;;25.05;43.14;95622.97;4967935;28;19922;-50
2023/07/22 09:28:07;;;;;;;;;;;31.60;39.90;;;25.05;41.90;95625.69;4965678;28;19917;-47
2023/07/22 09:30:38;;;;;;;;;;;31.40;39.90;;;24.69;42.89;95624.88;4973305;28;20357;-50
2023/07/22 09:33:19;;;;;;;;;;;31.30;39.90;;;24.65;42.26;95634.91;4972192;28;19941;-49
2023/07/22 09:35:47;;;;;;;;;;;31.10;39.80;;;24.40;40.87;95624.19;4961755;28;20407;-47
2023/07/22 09:38:15;;;;;;;;;;;30.90;39.60;;;24.46;42.43;95619.31;4969056;28;19960;-50
2023/07/22 09:40:41;;;;;;;;;;;30.80;39.60;;;24.31;41.39;95614.63;4973197;28;19910;-50
2023/07/22 09:43:12;;;;;;;;;;;30.60;39.60;;;24.29;42.25;95620.44;4960823;28;19940;-49
2023/07/22 09:45:38;;;;;;;;;;;30.40;39.50;;;24.27;42.99;95619.19;4973867;28;19913;-48
2023/07/22 09:48:05;;;;;;;;;;;30.30;39.50;;;24.06;44.09;95622.94;4972987;28;19933;-46
2023/07/22 09:50:31;;;;;;;;;;;30.10;39.40;;;24.07;44.70;95635.44;4968113;28;20339;-50
2023/07/22 09:52:59;;;;;;;;;;;29.90;39.50;;;23.90;42.92;95627.59;4973183;28;20301;-46
2023/07/22 09:55:29;;;;;;;;;;;29.80;39.60;;;23.92;43.18;95625.31;4972349;28;19909;-44
2023/07/22 09:58:05;;;;;;;;;;;29.70;39.30;;;24.35;43.45;95629.09;4968587;28;19917;-48
2023/07/22 10:00:35;;;;;;;;;;;30.00;39.10;;;24.81;42.80;95622.06;4964703;28;19964;-49
2023/07/22 10:03:08;;;;;;;;;;;30.40;38.70;;;25.44;42.00;95626.53;4969897;28;20339;-48
2023/07/22 10:05:36;;;;;;;;;;;30.90;38.70;;;26.11;41.98;95630.94;4987535;28;20004;-49
2023/07/22 10:08:05;;;;;;;;;;;31.40;38.60;;;26.23;39.36;95622.53;4971268;28;19910;-47
2023/07/22 10:10:42;;;;;;;;;;;31.80;37.90;;;26.05;38.76;95623.03;4971318;28;20292;-47
2023/07/22 10:13:09;;;;;;;;;;;32.20;37.70;;;26.61;38.53;95608.00;4971008;28;20427;-50
2023/07/22 10:15:35;;;;;;;;;;;32.60;37.30;;;26.79;37.86;95613.69;4953624;28;19917;-51
2023/07/22 10:18:03;;;;;;;;;;;33.00;36.90;;;26.63;38.16;95613.06;4972522;28;20376;-52
2023/07/22 10:20:30;;;;;;;;;;;33.30;36.10;;;27.06;37.67;95611.75;4971993;28;19924;-49
2023/07/22 10:22:56;;;;;;;;;;;33.50;36.00;;;27.55;38.58;95615.53;4968306;28;19937;-49
2023/07/22 10:25:23;;;;;;;;;;;33.90;36.00;;;27.88;36.62;95611.97;4968674;28;19922;-45
2023/07/22 10:27:51;;;;;;;;;;;34.20;35.80;;;28.19;35.65;95605.25;4963451;28;19916;-51
2023/07/22 10:30:18;;;;;;;;;;;34.60;35.50;;;28.56;36.14;95604.41;4969245;28;19914;-46
2023/07/22 10:32:54;;;;;;;;;;;35.10;34.90;;;28.55;36.17;95598.13;4966862;28;20016;-45
2023/07/22 10:35:39;;;;;;;;;;;35.50;34.70;;;28.60;35.58;95592.28;4976267;28;19985;-46
2023/07/22 10:38:15;;;;;;;;;;;36.00;34.50;;;28.77;37.10;95599.06;4971167;28;19996;-43
2023/07/22 10:40:55;;;;;;;;;;;36.40;33.80;;;28.83;36.41;95589.31;4976245;28;19964;-45
2023/07/22 10:43:32;;;;;;;;;;;36.70;32.70;;;29.37;36.91;95584.13;4962288;28;20264;-44
2023/07/22 10:46:12;;;;;;;;;;;37.00;32.60;;;29.72;34.42;95590.94;4976490;28;19913;-43
2023/07/22 10:48:41;;;;;;;;;;;37.40;32.30;;;30.26;33.32;95578.09;4974677;28;19964;-44
2023/07/22 10:51:15;;;;;;;;;;;37.80;32.30;;;30.07;32.97;95587.47;4962322;28;19914;-44
2023/07/22 10:53:47;;;;;;;;;;;37.80;31.90;;;29.79;33.38;95574.47;4976307;28;19937;-47
2023/07/22 10:56:20;;;;;;;;;;;37.30;31.90;;;28.98;34.49;95575.69;4970019;28;19917;-45
2023/07/22 10:58:48;;;;;;;;;;;37.00;31.90;;;28.87;35.96;95572.13;4975481;28;20380;-46
2023/07/22 11:01:27;;;;;;;;;;;36.60;31.70;;;28.63;36.90;95579.00;4962194;28;20016;-45
2023/07/22 11:04:17;;;;;;;;;;;36.30;32.00;;;28.78;36.57;95567.75;4964022;28;19918;-47
2023/07/22 11:06:48;;;;;;;;;;;36.30;32.20;;;29.12;35.02;95564.84;4965090;28;20015;-43
2023/07/22 11:09:34;;;;;;;;;;;36.60;32.10;;;29.14;35.92;95561.69;4974780;28;19976;-44
2023/07/22 11:12:11;;;;;;;;;;;36.60;32.00;;;29.07;35.63;95562.44;4963346;28;19918;-45
2023/07/22 11:14:52;;;;;;;;;;;36.60;32.20;;;29.04;35.96;95555.00;4961751;28;19914;-45